createdAt,value
2023-03-08T00:02:39.929Z,26.97
2023-03-08T00:05:25.297Z,27.63
2023-03-08T00:08:10.767Z,29.47
2023-03-08T00:10:55.935Z,27.27
2023-03-08T00:13:41.641Z,25.67
2023-03-08T00:16:27.180Z,24.03
2023-03-08T00:19:12.303Z,25.47
2023-03-08T00:21:57.858Z,21.23
2023-03-08T00:24:43.184Z,25.63
2023-03-08T00:27:28.026Z,22.60
2023-03-08T00:30:13.724Z,21.47
2023-03-08T00:32:58.734Z,23.00
2023-03-08T00:35:43.642Z,22.43
2023-03-08T00:38:31.516Z,21.60
2023-03-08T00:41:16.543Z,21.23
2023-03-08T00:44:01.578Z,19.47
2023-03-08T00:46:47.001Z,22.37
2023-03-08T00:49:32.168Z,21.50
2023-03-08T00:52:17.068Z,19.73
2023-03-08T00:55:01.995Z,17.80
2023-03-08T00:57:47.386Z,19.90
2023-03-08T01:00:32.778Z,20.73
2023-03-08T01:03:19.490Z,21.90
2023-03-08T01:06:08.724Z,20.33
2023-03-08T01:08:54.070Z,21.77
2023-03-08T01:11:39.601Z,21.23
2023-03-08T01:14:24.930Z,20.57
2023-03-08T01:17:10.339Z,22.13
2023-03-08T01:19:55.609Z,22.57
2023-03-08T01:22:40.941Z,22.13
2023-03-08T01:25:27.051Z,24.50
2023-03-08T01:28:14.855Z,24.33
2023-03-08T01:31:20.840Z,26.30
2023-03-08T01:34:05.853Z,23.27
2023-03-08T01:36:50.691Z,23.77
2023-03-08T01:39:35.571Z,24.57
2023-03-08T01:42:20.970Z,25.20
2023-03-08T01:45:26.892Z,23.80
2023-03-08T01:48:14.302Z,25.97
2023-03-08T01:51:02.373Z,26.30
2023-03-08T01:53:47.844Z,24.00
2023-03-08T01:56:34.405Z,26.67
2023-03-08T01:59:22.282Z,28.80
2023-03-08T02:02:07.473Z,29.20
2023-03-08T02:04:52.692Z,28.43
2023-03-08T02:07:37.517Z,28.13
2023-03-08T02:10:23.006Z,33.43
2023-03-08T02:13:09.216Z,34.60
2023-03-08T02:15:55.986Z,40.50
2023-03-08T02:19:01.609Z,34.93
2023-03-08T02:21:46.944Z,37.57
2023-03-08T02:24:32.405Z,40.67
2023-03-08T02:27:21.548Z,35.60
2023-03-08T02:30:07.825Z,36.90
2023-03-08T02:32:53.058Z,36.30
2023-03-08T02:35:38.474Z,38.20
2023-03-08T02:38:23.685Z,38.03
2023-03-08T02:41:08.882Z,39.87
2023-03-08T02:43:53.824Z,37.40
2023-03-08T02:46:39.985Z,38.60
2023-03-08T02:49:25.235Z,36.23
2023-03-08T02:52:10.513Z,35.83
2023-03-08T02:54:56.173Z,37.77
2023-03-08T02:57:41.384Z,34.03
2023-03-08T03:00:26.631Z,35.87
2023-03-08T03:03:11.584Z,36.07
2023-03-08T03:05:56.966Z,34.97
2023-03-08T03:08:42.550Z,34.87
2023-03-08T03:11:27.613Z,39.23
2023-03-08T03:14:12.577Z,38.27
2023-03-08T03:16:58.817Z,34.93
2023-03-08T03:19:43.944Z,38.77
2023-03-08T03:22:28.786Z,37.80
2023-03-08T03:25:14.390Z,39.80
2023-03-08T03:27:59.534Z,46.63
2023-03-08T03:30:44.671Z,46.57
2023-03-08T03:33:30.014Z,50.10
2023-03-08T03:36:18.118Z,48.07
2023-03-08T03:39:03.657Z,52.43
2023-03-08T03:41:49.548Z,51.60
2023-03-08T03:44:34.806Z,48.50
2023-03-08T03:47:19.675Z,49.20
2023-03-08T03:50:04.830Z,52.60
2023-03-08T03:52:49.686Z,54.90
2023-03-08T03:55:34.560Z,57.43
2023-03-08T03:58:19.476Z,58.80
2023-03-08T04:01:10.363Z,57.40
2023-03-08T04:03:56.269Z,56.30
2023-03-08T04:06:41.447Z,57.70
2023-03-08T04:09:26.774Z,64.53
2023-03-08T04:12:12.145Z,60.50
2023-03-08T04:14:57.234Z,72.27
2023-03-08T04:17:42.141Z,74.53
2023-03-08T04:20:27.147Z,71.77
2023-03-08T04:23:12.698Z,73.33
2023-03-08T04:25:57.602Z,72.03
2023-03-08T04:28:43.169Z,70.77
2023-03-08T04:31:29.607Z,76.00
2023-03-08T04:34:14.687Z,77.13
2023-03-08T04:36:59.664Z,77.40
2023-03-08T04:39:44.508Z,79.27
2023-03-08T04:42:29.624Z,81.27
2023-03-08T04:45:15.013Z,83.17
2023-03-08T04:48:00.459Z,79.90
2023-03-08T04:50:45.505Z,91.23
2023-03-08T04:53:31.803Z,98.03
2023-03-08T04:56:17.909Z,88.83
2023-03-08T04:59:03.545Z,95.53
2023-03-08T05:01:48.495Z,94.90
2023-03-08T05:04:33.598Z,99.80
2023-03-08T05:07:19.001Z,84.30
2023-03-08T05:10:04.682Z,83.50
2023-03-08T05:12:49.766Z,99.47
2023-03-08T05:15:34.651Z,93.93
2023-03-08T05:18:19.767Z,87.87
2023-03-08T05:21:13.602Z,97.13
2023-03-08T05:24:00.247Z,94.77
2023-03-08T05:26:45.498Z,98.53
2023-03-08T05:29:30.342Z,101.07
2023-03-08T05:32:15.857Z,105.97
2023-03-08T05:35:01.254Z,101.80
2023-03-08T05:37:46.658Z,96.43
2023-03-08T05:40:31.567Z,95.00
2023-03-08T05:43:17.897Z,95.57
2023-03-08T05:46:05.965Z,101.17
2023-03-08T05:48:51.030Z,85.50
2023-03-08T05:51:36.529Z,96.47
2023-03-08T05:54:21.896Z,100.47
2023-03-08T05:57:06.832Z,92.10
2023-03-08T05:59:52.302Z,93.30
2023-03-08T06:02:37.504Z,102.63
2023-03-08T06:05:22.401Z,96.90
2023-03-08T06:08:08.007Z,100.37
2023-03-08T06:10:53.311Z,103.17
2023-03-08T06:13:38.294Z,103.13
2023-03-08T06:16:23.098Z,108.27
2023-03-08T06:19:08.460Z,112.60
2023-03-08T06:21:53.800Z,105.20
2023-03-08T06:24:38.823Z,119.40
2023-03-08T06:27:24.092Z,108.37
2023-03-08T06:30:10.020Z,118.47
2023-03-08T06:32:55.310Z,107.67
2023-03-08T06:35:40.560Z,114.83
2023-03-08T06:38:29.445Z,137.47
2023-03-08T06:41:17.521Z,117.77
2023-03-08T06:44:02.754Z,113.37
2023-03-08T06:46:47.971Z,119.63
2023-03-08T06:49:34.117Z,116.73
2023-03-08T06:52:19.179Z,121.37
2023-03-08T06:55:05.484Z,126.33
2023-03-08T06:57:50.848Z,101.13
2023-03-08T07:00:36.460Z,109.90
2023-03-08T07:03:21.804Z,108.77
2023-03-08T07:06:09.601Z,111.43
2023-03-08T07:08:54.921Z,102.83
2023-03-08T07:12:15.833Z,102.77
2023-03-08T07:15:00.938Z,99.13
2023-03-08T07:17:47.600Z,94.97
2023-03-08T07:20:32.823Z,98.70
2023-03-08T07:23:18.259Z,90.40
2023-03-08T07:26:07.208Z,87.10
2023-03-08T07:28:52.768Z,84.43
2023-03-08T07:31:38.056Z,76.53
2023-03-08T07:34:22.942Z,79.30
2023-03-08T07:37:16.945Z,75.60
2023-03-08T07:40:02.037Z,73.07
2023-03-08T07:42:47.279Z,77.33
2023-03-08T07:45:33.293Z,73.43
2023-03-08T07:48:18.531Z,74.13
2023-03-08T07:51:08.107Z,73.70
2023-03-08T07:53:53.393Z,69.57
2023-03-08T07:56:38.877Z,69.07
2023-03-08T07:59:24.754Z,69.43
2023-03-08T08:02:12.533Z,71.10
2023-03-08T08:04:57.576Z,67.50
2023-03-08T08:07:46.483Z,63.03
2023-03-08T08:10:31.601Z,65.10
2023-03-08T08:13:17.755Z,63.10
2023-03-08T08:16:03.405Z,62.30
2023-03-08T08:18:48.669Z,77.13
2023-03-08T08:21:33.880Z,64.47
2023-03-08T08:24:19.311Z,61.47
2023-03-08T08:27:04.847Z,61.03
2023-03-08T08:29:50.000Z,61.67
2023-03-08T08:32:36.521Z,51.20
2023-03-08T08:35:23.958Z,55.77
2023-03-08T08:38:12.447Z,55.50
2023-03-08T08:41:05.277Z,61.07
2023-03-08T08:43:50.994Z,54.27
2023-03-08T08:46:36.121Z,54.63
2023-03-08T08:49:21.492Z,57.50
2023-03-08T08:52:06.804Z,56.53
2023-03-08T08:54:53.070Z,57.70
2023-03-08T08:57:38.255Z,54.80
2023-03-08T09:00:23.219Z,53.90
2023-03-08T09:03:08.538Z,56.73
2023-03-08T09:05:53.429Z,53.30
2023-03-08T09:08:38.964Z,48.97
2023-03-08T09:11:25.668Z,46.33
2023-03-08T09:14:10.751Z,45.77
2023-03-08T09:16:55.860Z,40.17
2023-03-08T09:19:41.091Z,42.53
2023-03-08T09:22:26.694Z,44.33
2023-03-08T09:25:13.086Z,45.93
2023-03-08T09:27:57.958Z,43.93
2023-03-08T09:30:43.336Z,48.23
2023-03-08T09:33:28.663Z,47.90
2023-03-08T09:36:14.338Z,48.30
2023-03-08T09:38:59.645Z,45.03
2023-03-08T09:41:46.085Z,40.63
2023-03-08T09:45:02.549Z,41.87
2023-03-08T09:47:51.466Z,42.30
2023-03-08T09:50:50.858Z,39.27
2023-03-08T09:53:42.893Z,37.17
2023-03-08T09:56:28.029Z,33.80
2023-03-08T09:59:32.281Z,36.83
2023-03-08T10:02:24.359Z,31.93
2023-03-08T10:05:30.162Z,35.00
2023-03-08T10:08:28.968Z,35.23
2023-03-08T10:11:36.034Z,35.60
2023-03-08T10:14:31.184Z,34.97
2023-03-08T10:17:28.183Z,29.97
2023-03-08T10:20:24.636Z,32.23
2023-03-08T10:23:16.993Z,30.30
2023-03-08T10:26:05.232Z,29.50
2023-03-08T10:28:50.605Z,26.47
2023-03-08T10:31:36.426Z,26.90
2023-03-08T10:34:32.554Z,25.60
2023-03-08T10:37:21.170Z,27.73
2023-03-08T10:40:17.199Z,26.57
2023-03-08T10:43:06.325Z,27.67
2023-03-08T10:46:11.106Z,28.17
2023-03-08T10:49:19.493Z,23.03
2023-03-08T10:52:04.850Z,27.03
2023-03-08T10:55:09.335Z,24.00
2023-03-08T10:58:02.319Z,24.23
2023-03-08T11:00:54.197Z,26.70
2023-03-08T11:03:39.444Z,28.17
2023-03-08T11:06:25.592Z,25.13
2023-03-08T11:09:32.550Z,27.57
2023-03-08T11:12:26.021Z,27.40
2023-03-08T11:15:18.323Z,24.10
2023-03-08T11:18:16.383Z,23.90
2023-03-08T11:21:13.459Z,28.20
2023-03-08T11:24:13.648Z,25.73
2023-03-08T11:27:24.641Z,30.70
2023-03-08T11:30:15.985Z,34.57
2023-03-08T11:33:34.852Z,25.10
2023-03-08T11:36:49.212Z,21.73
2023-03-08T11:39:38.169Z,20.40
2023-03-08T11:42:57.615Z,18.13
2023-03-08T11:45:54.937Z,18.43
2023-03-08T11:48:43.420Z,18.93
2023-03-08T11:51:48.205Z,19.13
2023-03-08T11:54:42.941Z,19.27
2023-03-08T11:57:34.733Z,16.27
2023-03-08T12:00:29.818Z,17.63
2023-03-08T12:03:34.936Z,17.03
2023-03-08T12:06:29.192Z,15.77
2023-03-08T12:09:42.608Z,16.87
2023-03-08T12:12:39.201Z,14.83
2023-03-08T12:15:39.358Z,16.73
2023-03-08T12:18:36.752Z,14.93
2023-03-08T12:21:40.177Z,13.43
2023-03-08T12:24:46.509Z,15.40
2023-03-08T12:27:44.037Z,27.20
2023-03-08T12:31:02.016Z,24.23
2023-03-08T12:33:47.939Z,21.77
2023-03-08T12:36:39.165Z,18.30
2023-03-08T12:39:33.623Z,23.77
2023-03-08T12:42:37.121Z,19.13
2023-03-08T12:45:22.460Z,18.07
2023-03-08T12:48:07.350Z,20.80
2023-03-08T12:51:00.039Z,16.27
2023-03-08T12:53:48.552Z,17.23
2023-03-08T12:56:54.810Z,20.60
2023-03-08T12:59:40.156Z,21.53
2023-03-08T13:02:34.184Z,18.10
2023-03-08T13:05:28.261Z,26.87
2023-03-08T13:08:13.686Z,21.73
2023-03-08T13:11:05.460Z,23.83
2023-03-08T13:13:58.681Z,25.47
2023-03-08T13:16:44.077Z,21.67
2023-03-08T13:19:31.328Z,25.63
2023-03-08T13:22:24.159Z,22.40
2023-03-08T13:25:27.767Z,16.37
2023-03-08T13:28:18.238Z,18.20
2023-03-08T13:31:17.973Z,16.10
2023-03-08T13:34:03.576Z,16.37
2023-03-08T13:36:48.779Z,15.57
2023-03-08T13:39:33.773Z,19.33
2023-03-08T13:42:18.844Z,16.77
2023-03-08T13:45:10.737Z,14.57
2023-03-08T13:47:58.766Z,16.57
2023-03-08T13:50:46.165Z,15.33
2023-03-08T13:53:34.343Z,19.13
2023-03-08T13:56:27.919Z,21.83
2023-03-08T13:59:19.796Z,15.60
2023-03-08T14:02:19.058Z,13.77
2023-03-08T14:05:25.959Z,15.17
2023-03-08T14:08:22.643Z,14.53
2023-03-08T14:11:15.798Z,19.57
2023-03-08T14:14:03.604Z,21.47
2023-03-08T14:16:52.772Z,26.00
2023-03-08T14:19:40.259Z,28.13
2023-03-08T14:22:38.685Z,31.53
2023-03-08T14:25:29.062Z,32.87
2023-03-08T14:28:42.249Z,30.90
2023-03-08T14:31:29.497Z,26.30
2023-03-08T14:34:22.698Z,21.20
2023-03-08T14:37:11.323Z,21.10
2023-03-08T14:40:20.003Z,20.77
2023-03-08T14:43:06.918Z,33.17
2023-03-08T14:46:01.879Z,17.50
2023-03-08T14:49:00.628Z,16.43
2023-03-08T14:51:45.577Z,15.73
2023-03-08T14:54:36.099Z,17.83
2023-03-08T14:57:29.018Z,19.10
2023-03-08T15:00:16.046Z,16.03
2023-03-08T15:03:01.140Z,18.83
2023-03-08T15:05:46.526Z,18.67
2023-03-08T15:08:31.707Z,16.20
2023-03-08T15:11:17.066Z,16.03
2023-03-08T15:14:02.449Z,16.43
2023-03-08T15:16:47.592Z,19.23
2023-03-08T15:19:32.896Z,16.20
2023-03-08T15:22:17.939Z,17.73
2023-03-08T15:25:03.065Z,15.90
2023-03-08T15:27:49.748Z,15.73
2023-03-08T15:30:34.974Z,17.57
2023-03-08T15:33:20.940Z,18.00
2023-03-08T15:36:06.617Z,18.93
2023-03-08T15:38:51.803Z,21.17
2023-03-08T15:41:37.324Z,18.03
2023-03-08T15:44:22.178Z,21.37
2023-03-08T15:47:09.519Z,22.90
2023-03-08T15:49:56.357Z,26.37
2023-03-08T15:52:45.098Z,21.23
2023-03-08T15:55:31.849Z,22.70
2023-03-08T15:58:16.649Z,22.30
2023-03-08T16:01:02.108Z,50.70
2023-03-08T16:03:47.754Z,23.00
2023-03-08T16:06:32.919Z,20.60
2023-03-08T16:09:17.887Z,24.53
2023-03-08T16:12:02.967Z,17.70
2023-03-08T16:14:50.058Z,18.67
2023-03-08T16:17:35.512Z,29.10
2023-03-08T16:20:20.829Z,25.10
2023-03-08T16:23:06.266Z,21.17
2023-03-08T16:26:14.575Z,24.93
2023-03-08T16:29:00.713Z,20.00
2023-03-08T16:31:45.929Z,25.83
2023-03-08T16:34:31.496Z,22.73
2023-03-08T16:37:20.840Z,21.10
2023-03-08T16:40:06.450Z,28.67
2023-03-08T16:42:51.855Z,26.90
2023-03-08T16:45:38.232Z,23.10
2023-03-08T16:48:23.916Z,25.57
2023-03-08T16:51:14.134Z,25.83
2023-03-08T16:53:59.336Z,28.37
2023-03-08T16:56:44.694Z,24.70
2023-03-08T16:59:30.153Z,29.77
2023-03-08T17:02:18.575Z,25.73
2023-03-08T17:05:03.728Z,28.13
2023-03-08T17:07:48.970Z,28.63
2023-03-08T18:37:38.041Z,32.30
2023-03-08T18:40:45.867Z,32.53
2023-03-08T18:48:00.228Z,33.43
2023-03-08T18:50:48.672Z,34.17
2023-03-08T18:54:09.037Z,31.57
2023-03-08T19:09:35.731Z,30.57
2023-03-08T19:12:21.629Z,31.90
2023-03-08T19:15:08.147Z,32.83
2023-03-08T19:17:58.710Z,29.63
2023-03-08T19:20:46.509Z,31.60
2023-03-08T19:23:33.145Z,34.43
2023-03-08T19:26:24.948Z,33.33
2023-03-08T19:29:13.346Z,34.27
2023-03-08T19:32:02.416Z,35.30
2023-03-08T19:34:47.524Z,37.97
2023-03-08T19:37:32.786Z,34.67
2023-03-08T19:40:18.379Z,35.37
2023-03-08T19:43:03.502Z,36.40
2023-03-08T19:45:49.665Z,40.60
2023-03-08T19:48:35.960Z,36.07
2023-03-08T19:51:20.986Z,36.70
2023-03-08T19:54:06.479Z,38.60
2023-03-08T19:56:52.510Z,33.57
2023-03-08T19:59:37.932Z,33.33
2023-03-08T20:02:22.797Z,36.03
2023-03-08T20:05:08.513Z,32.97
2023-03-08T20:07:53.644Z,38.63
2023-03-08T20:10:39.277Z,38.63
2023-03-08T20:13:24.535Z,39.37
2023-03-08T20:16:09.352Z,34.57
2023-03-08T20:18:54.777Z,35.70
2023-03-08T20:21:40.092Z,36.53
2023-03-08T20:24:25.487Z,37.40
2023-03-08T20:27:10.320Z,35.07
2023-03-08T20:29:55.806Z,36.00
2023-03-08T20:32:41.005Z,37.83
2023-03-08T20:35:26.334Z,35.97
2023-03-08T20:38:11.325Z,232.83
2023-03-08T20:41:04.492Z,45.77
2023-03-08T20:43:51.649Z,32.57
2023-03-08T20:46:36.746Z,36.93
2023-03-08T20:49:22.207Z,33.20
2023-03-08T20:52:08.936Z,36.73
2023-03-08T20:54:55.370Z,34.23
2023-03-08T20:57:40.976Z,34.17
2023-03-08T21:00:26.091Z,34.70
2023-03-08T21:03:11.659Z,36.13
2023-03-08T21:05:57.062Z,37.00
2023-03-08T21:08:42.498Z,37.23
2023-03-08T21:11:28.638Z,39.80
2023-03-08T21:14:14.098Z,41.03
2023-03-08T21:16:59.281Z,39.03
2023-03-08T21:19:44.379Z,40.60
2023-03-08T21:22:31.307Z,36.93
2023-03-08T21:25:17.831Z,38.37
2023-03-08T21:28:02.870Z,39.47
2023-03-08T21:30:48.790Z,55.63
2023-03-08T21:33:33.991Z,77.93
2023-03-08T21:36:19.804Z,60.17
2023-03-08T21:39:06.367Z,38.40
2023-03-08T21:41:51.735Z,49.20
2023-03-08T21:44:36.543Z,55.30
2023-03-08T21:47:21.435Z,41.20
2023-03-08T21:50:08.394Z,47.20
2023-03-08T21:52:54.850Z,43.73
2023-03-08T21:55:41.755Z,40.20
2023-03-08T21:58:27.029Z,44.70
2023-03-08T22:01:24.256Z,46.93
2023-03-08T22:04:09.926Z,49.53
2023-03-08T22:06:55.904Z,42.97
2023-03-08T22:09:40.946Z,42.37
2023-03-08T22:12:26.037Z,43.83
2023-03-08T22:15:11.238Z,42.83
2023-03-08T22:17:56.492Z,46.00
2023-03-08T22:20:43.564Z,49.27
2023-03-08T22:23:28.766Z,52.87
2023-03-08T22:26:14.317Z,53.37
2023-03-08T22:28:59.756Z,52.30
2023-03-08T22:31:45.170Z,54.50
2023-03-08T22:34:30.666Z,55.37
2023-03-08T22:37:16.079Z,55.97
2023-03-08T22:40:01.815Z,54.27
2023-03-08T22:42:47.140Z,52.40
2023-03-08T22:45:32.613Z,55.13
2023-03-08T22:48:17.966Z,57.20
2023-03-08T22:51:10.771Z,54.97
2023-03-08T22:53:56.854Z,53.87
2023-03-08T22:56:42.103Z,57.40
2023-03-08T22:59:27.403Z,53.40
2023-03-08T23:02:13.813Z,57.17
2023-03-08T23:04:58.768Z,58.70
2023-03-08T23:07:44.275Z,55.13
2023-03-08T23:10:29.319Z,57.53
2023-03-08T23:13:31.173Z,57.00
2023-03-08T23:16:19.487Z,54.33
2023-03-08T23:19:04.935Z,55.40
2023-03-08T23:21:49.979Z,56.67
2023-03-08T23:24:35.162Z,62.83
2023-03-08T23:27:20.167Z,58.13
2023-03-08T23:30:06.662Z,54.80
2023-03-08T23:32:52.096Z,55.20
2023-03-08T23:35:37.427Z,53.50
2023-03-08T23:38:22.865Z,54.67
2023-03-08T23:41:10.324Z,55.53
2023-03-08T23:43:57.664Z,55.90
2023-03-08T23:46:42.866Z,56.07
2023-03-08T23:49:28.316Z,56.70
2023-03-08T23:52:13.839Z,51.77
2023-03-08T23:54:58.729Z,52.87
2023-03-08T23:57:43.989Z,51.73
